Arvada, CO

4:15 PM MDT on April 29, 2017 (GMT -0600)
75th & Alkire | | Change Station
Active Advisory: Freeze Warning

Elev 5479 ft 39.83 °N, 105.14 °W | Updated 7 minutes ago

Snow
Snow
31.3 °F
Feels Like 31 °F
N
1.0
Wind Variable Wind from NNW
Gusts 9.0 mph

Today
High -- | Low -- °F
--% Chance of Precip.
Yesterday
High -- | Low -- °F
Precip. -- in
Pressure 30.19 in
Visibility 1.2 miles
Clouds Few 600 ft
Mostly Cloudy 1000 ft
Overcast 1700 ft
Windchill 31 °F
Dew Point 29 °F
Humidity 92%
Rainfall 0.11 in
Snow Depth Not available.
6:03 AM 7:53 PM
Waxing Crescent, 17% visible
METAR KBJC 292147Z 36009KT 1 1/4SM -SN BR FEW006 BKN010 OVC017 00/M01 A3019
Pressure 30.19 in
Visibility 1.2 miles
Clouds Few 600 ft
Mostly Cloudy 1000 ft
Overcast 1700 ft
Windchill 31 °F
Dew Point 29 °F
Humidity 92%
Rainfall 0.11 in
Snow Depth Not available.
6:03 AM 7:53 PM
Waxing Crescent, 17% visible
METAR KBJC 292147Z 36009KT 1 1/4SM -SN BR FEW006 BKN010 OVC017 00/M01 A3019

Get Your Daily Forecast Email!

Thanks for signing up!

Be on the lookout for a verification email in your inbox.

You'll start receiving severe weather alerts in your inbox..

×

10-Day Weather Forecast

Almanac

Astronomy

Apr. 29, 2017 Rise Set
Actual Time
Civil Twilight
Nautical Twilight
Astronomical Twilight
Moon
Length of Visible Light
Length of Day
Tomorrow will be .
, % of the Moon is Illuminated

Today's Extremes

State Highs State Lows

Community

WunderPhotos

WunderBlog® & News

Nearby

Air Quality

  Air Quality AQ Index Pollutant
Not available.

Snow Depth

Station Depth Elevation

Earthquake Activity

City Distance Mag. Time & Date
Minimum magnitude displayed is 2.5.

Coastal Water Temperatures

Place Temperature

Stations

Nearby Weather Stations

Station Location Temp. Windchill Dew Point Humidity Wind Precip. Elev Updated Type
                   

Watches & Warnings

Freeze Warning
Issued: 3:25 PM MDT Apr. 29, 2017 – National Weather Service

... Freeze warning in effect from 10 PM this evening to 8 am MDT
Sunday...

The National Weather Service in Denver has issued a freeze
warning, which is in effect from 10 PM this evening to 8 am MDT
Sunday.

* Temperature... lows in the mid to upper 20s in most areas.
Coldest spots near 20 degrees, mainly low lying areas north of
Denver.

* Impacts... damage to irrigation systems and tender vegetation.

Precautionary/preparedness actions...

Residents should drain sprinkler systems, unhook hoses, and
protect cold-sensitive vegetation.



Gimmestad